Loodiep — A8ZO7 — position and weather

sailwx.info

Track history (hours):
 
Tides and Currents Weather Stations Pressure Air Temp Water Temp Dewpoint Dewpoint Depression Visibility Wind Speed Wind Dir Waves Ship Positions

Loodiep

Last reported at 2015-Aug-02 16:06 UTC. Time now 2015-Aug-03 00:28 UTC.
Position N 31°59' E 034°09'.

Length 108 m; draft 7.3 m.

Type: Cargo ship. MMSI: 636015263.

Date/timePositionNaut miles runAvg speedWind from/ knotsBaromVisibWave heightAir tempDewpointWater temp
2015-Aug-02 16:06N 31°59' E 034°09'510.0
2015-Aug-02 15:33N 32°01' E 034°03'1010.2
2015-Aug-02 14:33N 32°06' E 033°52'1010.2
2015-Aug-02 13:33N 32°09' E 033°41'1010.3
2015-Aug-02 12:33N 32°13' E 033°30'1210.6
2015-Aug-02 11:27N 32°17' E 033°17'1010.6
2015-Aug-02 10:33N 32°20' E 033°06'1110.3
2015-Aug-02 09:30N 32°24' E 032°54'1010.3
2015-Aug-02 08:33N 32°27' E 032°43'3110.4
2015-Aug-02 05:33N 32°37' E 032°08'3210.3
2015-Aug-02 02:24N 32°48' E 031°32'1910.0
2015-Aug-02 00:31N 32°54' E 031°11'  
2015-Jul-23 20:33N 36°36' E 014°56'1111.0
2015-Jul-23 19:33N 36°39' E 014°43'1110.9
2015-Jul-23 18:33N 36°41' E 014°30'1110.8
2015-Jul-23 17:33N 36°44' E 014°17'1111.0
2015-Jul-23 16:33N 36°46' E 014°03'  
Track history (hours):
 
Tides and Currents Weather Stations Pressure Air Temp Water Temp Dewpoint Dewpoint Depression Visibility Wind Speed Wind Dir Waves Ship Positions

Loodiep

Last reported at 2015-Aug-02 16:06 UTC. Time now 2015-Aug-03 00:28 UTC.
Position N 31°59' E 034°09'.

Length 108 m; draft 7.3 m.

Type: Cargo ship. MMSI: 636015263.

Date/timePositionNaut miles runAvg speedWind from/ knotsBaromVisibWave heightAir tempDewpointWater temp
2015-Aug-02 16:06N 31°59' E 034°09'510.0
2015-Aug-02 15:33N 32°01' E 034°03'1010.2
2015-Aug-02 14:33N 32°06' E 033°52'1010.2
2015-Aug-02 13:33N 32°09' E 033°41'1010.3
2015-Aug-02 12:33N 32°13' E 033°30'1210.6
2015-Aug-02 11:27N 32°17' E 033°17'1010.6
2015-Aug-02 10:33N 32°20' E 033°06'1110.3
2015-Aug-02 09:30N 32°24' E 032°54'1010.3
2015-Aug-02 08:33N 32°27' E 032°43'3110.4
2015-Aug-02 05:33N 32°37' E 032°08'3210.3
2015-Aug-02 02:24N 32°48' E 031°32'1910.0
2015-Aug-02 00:31N 32°54' E 031°11'  
2015-Jul-23 20:33N 36°36' E 014°56'1111.0
2015-Jul-23 19:33N 36°39' E 014°43'1110.9
2015-Jul-23 18:33N 36°41' E 014°30'1110.8
2015-Jul-23 17:33N 36°44' E 014°17'1111.0
2015-Jul-23 16:33N 36°46' E 014°03'  

Dump ship's entire track history